sensor_id;sensor_type;location;lat;lon;timestamp;P1;durP1;ratioP1;P2;durP2;ratioP2
55210;SDS011;41082;52.822;6.666;2022-09-12T00:00:40;6.30;;;5.75;;
55210;SDS011;41082;52.822;6.666;2022-09-12T00:03:05;5.80;;;5.30;;
55210;SDS011;41082;52.822;6.666;2022-09-12T00:05:31;6.10;;;5.50;;
55210;SDS011;41082;52.822;6.666;2022-09-12T00:07:57;5.70;;;5.18;;
55210;SDS011;41082;52.822;6.666;2022-09-12T00:10:24;5.93;;;5.38;;
55210;SDS011;41082;52.822;6.666;2022-09-12T00:12:50;5.75;;;5.15;;
55210;SDS011;41082;52.822;6.666;2022-09-12T00:15:16;5.20;;;4.72;;
55210;SDS011;41082;52.822;6.666;2022-09-12T00:17:42;4.38;;;3.97;;
55210;SDS011;41082;52.822;6.666;2022-09-12T00:20:07;4.63;;;3.58;;
55210;SDS011;41082;52.822;6.666;2022-09-12T00:22:34;2.13;;;1.98;;
55210;SDS011;41082;52.822;6.666;2022-09-12T00:25:00;2.25;;;1.65;;
55210;SDS011;41082;52.822;6.666;2022-09-12T00:27:26;1.92;;;0.68;;
55210;SDS011;41082;52.822;6.666;2022-09-12T00:29:52;2.85;;;2.65;;
55210;SDS011;41082;52.822;6.666;2022-09-12T00:32:18;3.17;;;1.77;;
55210;SDS011;41082;52.822;6.666;2022-09-12T00:34:44;6.03;;;3.95;;
55210;SDS011;41082;52.822;6.666;2022-09-12T00:37:10;3.72;;;3.30;;
55210;SDS011;41082;52.822;6.666;2022-09-12T00:39:36;5.60;;;4.57;;
55210;SDS011;41082;52.822;6.666;2022-09-12T00:42:02;5.40;;;5.00;;
55210;SDS011;41082;52.822;6.666;2022-09-12T00:46:57;7.80;;;7.00;;
55210;SDS011;41082;52.822;6.666;2022-09-12T00:49:28;7.68;;;7.07;;
55210;SDS011;41082;52.822;6.666;2022-09-12T00:54:31;7.53;;;6.82;;
55210;SDS011;41082;52.822;6.666;2022-09-12T00:57:00;7.70;;;6.93;;
55210;SDS011;41082;52.822;6.666;2022-09-12T00:59:39;6.90;;;6.30;;
55210;SDS011;41082;52.822;6.666;2022-09-12T01:02:08;8.73;;;7.80;;
55210;SDS011;41082;52.822;6.666;2022-09-12T01:04:35;8.35;;;7.65;;
55210;SDS011;41082;52.822;6.666;2022-09-12T01:07:03;9.27;;;8.48;;
55210;SDS011;41082;52.822;6.666;2022-09-12T01:09:30;9.57;;;8.68;;
55210;SDS011;41082;52.822;6.666;2022-09-12T01:11:56;7.75;;;7.00;;
55210;SDS011;41082;52.822;6.666;2022-09-12T01:14:23;5.80;;;5.30;;
55210;SDS011;41082;52.822;6.666;2022-09-12T01:16:48;5.00;;;4.30;;
55210;SDS011;41082;52.822;6.666;2022-09-12T01:24:52;3.45;;;2.97;;
55210;SDS011;41082;52.822;6.666;2022-09-12T01:28:07;6.22;;;5.68;;
55210;SDS011;41082;52.822;6.666;2022-09-12T01:30:59;6.28;;;5.68;;
55210;SDS011;41082;52.822;6.666;2022-09-12T01:33:46;6.43;;;5.82;;
55210;SDS011;41082;52.822;6.666;2022-09-12T01:38:47;7.20;;;6.45;;
55210;SDS011;41082;52.822;6.666;2022-09-12T01:41:23;8.45;;;7.75;;
55210;SDS011;41082;52.822;6.666;2022-09-12T01:49:21;7.07;;;6.47;;
55210;SDS011;41082;52.822;6.666;2022-09-12T01:51:53;7.25;;;6.60;;
55210;SDS011;41082;52.822;6.666;2022-09-12T01:54:34;8.05;;;7.25;;
55210;SDS011;41082;52.822;6.666;2022-09-12T01:57:03;7.97;;;7.35;;
55210;SDS011;41082;52.822;6.666;2022-09-12T01:59:37;8.77;;;8.00;;
55210;SDS011;41082;52.822;6.666;2022-09-12T02:02:14;9.30;;;8.50;;
55210;SDS011;41082;52.822;6.666;2022-09-12T02:05:06;9.13;;;8.32;;
55210;SDS011;41082;52.822;6.666;2022-09-12T02:07:39;11.40;;;10.20;;
55210;SDS011;41082;52.822;6.666;2022-09-12T02:15:37;11.98;;;10.82;;
55210;SDS011;41082;52.822;6.666;2022-09-12T02:18:06;12.23;;;11.13;;
55210;SDS011;41082;52.822;6.666;2022-09-12T02:20:36;13.75;;;12.35;;
55210;SDS011;41082;52.822;6.666;2022-09-12T02:23:05;14.10;;;12.60;;
55210;SDS011;41082;52.822;6.666;2022-09-12T02:25:36;15.18;;;13.63;;
55210;SDS011;41082;52.822;6.666;2022-09-12T02:28:05;25.98;;;21.75;;
55210;SDS011;41082;52.822;6.666;2022-09-12T02:30:43;28.35;;;25.38;;
55210;SDS011;41082;52.822;6.666;2022-09-12T02:38:58;34.78;;;29.10;;
55210;SDS011;41082;52.822;6.666;2022-09-12T02:41:24;33.95;;;28.33;;
55210;SDS011;41082;52.822;6.666;2022-09-12T02:43:50;37.90;;;29.27;;
55210;SDS011;41082;52.822;6.666;2022-09-12T02:46:21;35.13;;;29.15;;
55210;SDS011;41082;52.822;6.666;2022-09-12T02:48:52;43.03;;;31.85;;
55210;SDS011;41082;52.822;6.666;2022-09-12T02:51:19;34.30;;;30.15;;
55210;SDS011;41082;52.822;6.666;2022-09-12T02:53:45;34.08;;;28.63;;
55210;SDS011;41082;52.822;6.666;2022-09-12T02:56:12;34.75;;;29.35;;
55210;SDS011;41082;52.822;6.666;2022-09-12T02:58:44;33.22;;;29.67;;
55210;SDS011;41082;52.822;6.666;2022-09-12T03:01:18;31.27;;;26.80;;
55210;SDS011;41082;52.822;6.666;2022-09-12T03:09:11;32.05;;;26.42;;
55210;SDS011;41082;52.822;6.666;2022-09-12T03:14:20;30.58;;;26.67;;
55210;SDS011;41082;52.822;6.666;2022-09-12T03:17:00;30.90;;;25.80;;
55210;SDS011;41082;52.822;6.666;2022-09-12T03:19:59;33.15;;;28.25;;
55210;SDS011;41082;52.822;6.666;2022-09-12T03:22:41;37.85;;;29.63;;
55210;SDS011;41082;52.822;6.666;2022-09-12T03:25:33;37.30;;;28.88;;
55210;SDS011;41082;52.822;6.666;2022-09-12T03:28:05;40.40;;;30.40;;
55210;SDS011;41082;52.822;6.666;2022-09-12T03:30:39;35.97;;;29.45;;
55210;SDS011;41082;52.822;6.666;2022-09-12T03:35:39;38.47;;;30.42;;
55210;SDS011;41082;52.822;6.666;2022-09-12T03:38:05;40.97;;;32.45;;
55210;SDS011;41082;52.822;6.666;2022-09-12T03:40:35;36.25;;;31.13;;
55210;SDS011;41082;52.822;6.666;2022-09-12T03:43:02;35.65;;;31.23;;
55210;SDS011;41082;52.822;6.666;2022-09-12T03:45:29;39.05;;;30.50;;
55210;SDS011;41082;52.822;6.666;2022-09-12T03:47:54;35.30;;;29.92;;
55210;SDS011;41082;52.822;6.666;2022-09-12T03:50:20;39.28;;;30.40;;
55210;SDS011;41082;52.822;6.666;2022-09-12T03:52:46;37.78;;;31.30;;
55210;SDS011;41082;52.822;6.666;2022-09-12T03:55:12;35.72;;;30.17;;
55210;SDS011;41082;52.822;6.666;2022-09-12T03:57:37;34.80;;;28.83;;
55210;SDS011;41082;52.822;6.666;2022-09-12T04:00:04;25.55;;;21.23;;
55210;SDS011;41082;52.822;6.666;2022-09-12T04:02:32;21.90;;;19.58;;
55210;SDS011;41082;52.822;6.666;2022-09-12T04:04:57;25.23;;;18.95;;
55210;SDS011;41082;52.822;6.666;2022-09-12T04:07:23;22.70;;;20.23;;
55210;SDS011;41082;52.822;6.666;2022-09-12T04:09:48;23.15;;;19.60;;
55210;SDS011;41082;52.822;6.666;2022-09-12T04:12:14;23.15;;;19.98;;
55210;SDS011;41082;52.822;6.666;2022-09-12T04:14:40;23.08;;;19.67;;
55210;SDS011;41082;52.822;6.666;2022-09-12T04:17:06;21.77;;;19.48;;
55210;SDS011;41082;52.822;6.666;2022-09-12T04:19:31;20.20;;;18.20;;
55210;SDS011;41082;52.822;6.666;2022-09-12T04:21:57;20.00;;;17.73;;
55210;SDS011;41082;52.822;6.666;2022-09-12T04:24:23;19.83;;;17.73;;
55210;SDS011;41082;52.822;6.666;2022-09-12T04:26:48;19.42;;;16.88;;
55210;SDS011;41082;52.822;6.666;2022-09-12T04:29:14;18.73;;;16.83;;
55210;SDS011;41082;52.822;6.666;2022-09-12T04:31:40;16.75;;;14.70;;
55210;SDS011;41082;52.822;6.666;2022-09-12T04:34:06;16.30;;;14.70;;
55210;SDS011;41082;52.822;6.666;2022-09-12T04:36:32;17.33;;;15.52;;
55210;SDS011;41082;52.822;6.666;2022-09-12T04:38:59;18.00;;;16.15;;
55210;SDS011;41082;52.822;6.666;2022-09-12T04:41:26;19.98;;;16.50;;
55210;SDS011;41082;52.822;6.666;2022-09-12T04:44:02;20.10;;;17.83;;
55210;SDS011;41082;52.822;6.666;2022-09-12T04:46:31;24.95;;;19.88;;
55210;SDS011;41082;52.822;6.666;2022-09-12T04:48:59;18.15;;;16.25;;
55210;SDS011;41082;52.822;6.666;2022-09-12T04:51:26;19.30;;;16.65;;
55210;SDS011;41082;52.822;6.666;2022-09-12T04:53:55;22.85;;;19.10;;
55210;SDS011;41082;52.822;6.666;2022-09-12T04:56:22;18.73;;;16.83;;
55210;SDS011;41082;52.822;6.666;2022-09-12T04:58:49;22.48;;;19.27;;
55210;SDS011;41082;52.822;6.666;2022-09-12T05:01:15;21.10;;;18.80;;
55210;SDS011;41082;52.822;6.666;2022-09-12T05:03:43;22.55;;;19.20;;
55210;SDS011;41082;52.822;6.666;2022-09-12T05:06:17;22.63;;;19.75;;
55210;SDS011;41082;52.822;6.666;2022-09-12T05:08:51;26.70;;;22.27;;
55210;SDS011;41082;52.822;6.666;2022-09-12T05:11:36;26.55;;;22.25;;
55210;SDS011;41082;52.822;6.666;2022-09-12T05:14:03;24.85;;;21.45;;
55210;SDS011;41082;52.822;6.666;2022-09-12T05:16:29;26.38;;;21.42;;
55210;SDS011;41082;52.822;6.666;2022-09-12T05:18:58;24.95;;;22.13;;
55210;SDS011;41082;52.822;6.666;2022-09-12T05:21:24;27.27;;;23.55;;
55210;SDS011;41082;52.822;6.666;2022-09-12T05:23:51;27.58;;;23.80;;
55210;SDS011;41082;52.822;6.666;2022-09-12T05:26:18;26.17;;;22.88;;
55210;SDS011;41082;52.822;6.666;2022-09-12T05:28:45;26.48;;;21.38;;
55210;SDS011;41082;52.822;6.666;2022-09-12T05:31:13;28.13;;;24.10;;
55210;SDS011;41082;52.822;6.666;2022-09-12T05:33:40;32.75;;;27.27;;
55210;SDS011;41082;52.822;6.666;2022-09-12T05:36:09;37.70;;;28.65;;
55210;SDS011;41082;52.822;6.666;2022-09-12T05:38:36;39.88;;;29.75;;
55210;SDS011;41082;52.822;6.666;2022-09-12T05:41:12;40.03;;;29.77;;
55210;SDS011;41082;52.822;6.666;2022-09-12T05:43:40;41.53;;;31.45;;
55210;SDS011;41082;52.822;6.666;2022-09-12T05:46:07;39.22;;;29.60;;
55210;SDS011;41082;52.822;6.666;2022-09-12T05:48:36;41.85;;;30.77;;
55210;SDS011;41082;52.822;6.666;2022-09-12T05:51:05;39.45;;;31.42;;
55210;SDS011;41082;52.822;6.666;2022-09-12T05:56:03;45.28;;;31.73;;
55210;SDS011;41082;52.822;6.666;2022-09-12T05:58:33;39.80;;;30.65;;
55210;SDS011;41082;52.822;6.666;2022-09-12T06:01:08;38.67;;;30.25;;
55210;SDS011;41082;52.822;6.666;2022-09-12T06:03:42;43.25;;;31.83;;
55210;SDS011;41082;52.822;6.666;2022-09-12T06:06:13;45.22;;;31.65;;
55210;SDS011;41082;52.822;6.666;2022-09-12T06:08:40;41.78;;;30.85;;
55210;SDS011;41082;52.822;6.666;2022-09-12T06:11:08;43.83;;;31.25;;
55210;SDS011;41082;52.822;6.666;2022-09-12T06:13:36;42.53;;;31.48;;
55210;SDS011;41082;52.822;6.666;2022-09-12T06:16:06;42.90;;;31.42;;
55210;SDS011;41082;52.822;6.666;2022-09-12T06:18:34;43.80;;;31.92;;
55210;SDS011;41082;52.822;6.666;2022-09-12T06:21:10;37.75;;;29.30;;
55210;SDS011;41082;52.822;6.666;2022-09-12T06:23:37;38.83;;;29.95;;
55210;SDS011;41082;52.822;6.666;2022-09-12T06:26:05;38.20;;;29.02;;
55210;SDS011;41082;52.822;6.666;2022-09-12T06:28:36;41.30;;;29.02;;
55210;SDS011;41082;52.822;6.666;2022-09-12T06:33:33;38.72;;;28.27;;
55210;SDS011;41082;52.822;6.666;2022-09-12T06:36:03;37.38;;;28.20;;
55210;SDS011;41082;52.822;6.666;2022-09-12T06:38:31;40.50;;;29.52;;
55210;SDS011;41082;52.822;6.666;2022-09-12T06:40:57;34.50;;;27.77;;
55210;SDS011;41082;52.822;6.666;2022-09-12T06:43:24;37.95;;;28.70;;
55210;SDS011;41082;52.822;6.666;2022-09-12T06:45:50;39.55;;;29.25;;
55210;SDS011;41082;52.822;6.666;2022-09-12T06:48:16;35.40;;;27.52;;
55210;SDS011;41082;52.822;6.666;2022-09-12T06:50:41;36.97;;;27.83;;
55210;SDS011;41082;52.822;6.666;2022-09-12T06:53:07;39.25;;;27.17;;
55210;SDS011;41082;52.822;6.666;2022-09-12T06:55:33;35.40;;;27.13;;
55210;SDS011;41082;52.822;6.666;2022-09-12T06:57:59;36.45;;;27.60;;
55210;SDS011;41082;52.822;6.666;2022-09-12T07:00:25;35.35;;;26.95;;
55210;SDS011;41082;52.822;6.666;2022-09-12T07:02:54;40.72;;;28.08;;
55210;SDS011;41082;52.822;6.666;2022-09-12T07:05:21;38.10;;;28.15;;
55210;SDS011;41082;52.822;6.666;2022-09-12T07:07:47;38.20;;;27.98;;
55210;SDS011;41082;52.822;6.666;2022-09-12T07:10:12;38.40;;;28.65;;
55210;SDS011;41082;52.822;6.666;2022-09-12T07:12:38;36.55;;;27.20;;
55210;SDS011;41082;52.822;6.666;2022-09-12T07:15:04;35.38;;;27.30;;
55210;SDS011;41082;52.822;6.666;2022-09-12T07:17:30;37.78;;;26.65;;
55210;SDS011;41082;52.822;6.666;2022-09-12T07:19:55;32.97;;;26.67;;
55210;SDS011;41082;52.822;6.666;2022-09-12T07:22:21;34.83;;;25.58;;
55210;SDS011;41082;52.822;6.666;2022-09-12T07:24:47;37.10;;;26.35;;
55210;SDS011;41082;52.822;6.666;2022-09-12T07:27:13;31.90;;;25.52;;
55210;SDS011;41082;52.822;6.666;2022-09-12T07:29:38;31.70;;;25.15;;
55210;SDS011;41082;52.822;6.666;2022-09-12T07:32:04;30.02;;;25.55;;
55210;SDS011;41082;52.822;6.666;2022-09-12T07:34:30;32.30;;;25.67;;
55210;SDS011;41082;52.822;6.666;2022-09-12T07:36:56;32.08;;;25.90;;
55210;SDS011;41082;52.822;6.666;2022-09-12T07:39:22;34.88;;;25.85;;
55210;SDS011;41082;52.822;6.666;2022-09-12T07:41:48;29.65;;;24.58;;
55210;SDS011;41082;52.822;6.666;2022-09-12T07:44:13;31.63;;;25.35;;
55210;SDS011;41082;52.822;6.666;2022-09-12T07:46:39;32.65;;;24.90;;
55210;SDS011;41082;52.822;6.666;2022-09-12T07:49:04;31.17;;;24.50;;
55210;SDS011;41082;52.822;6.666;2022-09-12T07:51:30;35.22;;;25.45;;
55210;SDS011;41082;52.822;6.666;2022-09-12T07:53:56;29.83;;;24.02;;
55210;SDS011;41082;52.822;6.666;2022-09-12T07:56:22;32.63;;;24.73;;
55210;SDS011;41082;52.822;6.666;2022-09-12T07:58:48;32.83;;;24.90;;
55210;SDS011;41082;52.822;6.666;2022-09-12T08:01:18;33.53;;;25.55;;
55210;SDS011;41082;52.822;6.666;2022-09-12T08:03:48;29.38;;;22.90;;
55210;SDS011;41082;52.822;6.666;2022-09-12T08:06:18;30.27;;;22.30;;
55210;SDS011;41082;52.822;6.666;2022-09-12T08:08:45;33.83;;;25.33;;
55210;SDS011;41082;52.822;6.666;2022-09-12T08:11:13;28.70;;;22.27;;
55210;SDS011;41082;52.822;6.666;2022-09-12T08:13:40;29.45;;;23.73;;
55210;SDS011;41082;52.822;6.666;2022-09-12T08:16:09;30.58;;;22.92;;
55210;SDS011;41082;52.822;6.666;2022-09-12T08:18:37;30.90;;;22.97;;
55210;SDS011;41082;52.822;6.666;2022-09-12T08:21:08;30.17;;;23.02;;
55210;SDS011;41082;52.822;6.666;2022-09-12T08:23:42;27.25;;;21.40;;
55210;SDS011;41082;52.822;6.666;2022-09-12T08:26:08;27.30;;;22.42;;
55210;SDS011;41082;52.822;6.666;2022-09-12T08:28:35;31.05;;;22.45;;
55210;SDS011;41082;52.822;6.666;2022-09-12T08:33:31;27.77;;;21.90;;
55210;SDS011;41082;52.822;6.666;2022-09-12T08:36:02;27.05;;;21.98;;
55210;SDS011;41082;52.822;6.666;2022-09-12T08:38:35;30.52;;;21.80;;
55210;SDS011;41082;52.822;6.666;2022-09-12T08:46:26;28.23;;;21.42;;
55210;SDS011;41082;52.822;6.666;2022-09-12T08:48:58;26.65;;;20.85;;
55210;SDS011;41082;52.822;6.666;2022-09-12T08:51:25;30.13;;;21.95;;
55210;SDS011;41082;52.822;6.666;2022-09-12T08:53:53;30.35;;;24.30;;
55210;SDS011;41082;52.822;6.666;2022-09-12T08:56:21;31.38;;;23.23;;
55210;SDS011;41082;52.822;6.666;2022-09-12T08:58:47;29.55;;;22.83;;
55210;SDS011;41082;52.822;6.666;2022-09-12T09:09:50;33.42;;;24.70;;
55210;SDS011;41082;52.822;6.666;2022-09-12T09:12:31;30.98;;;23.25;;
55210;SDS011;41082;52.822;6.666;2022-09-12T09:18:09;38.97;;;27.33;;
55210;SDS011;41082;52.822;6.666;2022-09-12T09:20:48;36.75;;;26.30;;
55210;SDS011;41082;52.822;6.666;2022-09-12T09:23:22;35.47;;;26.50;;
55210;SDS011;41082;52.822;6.666;2022-09-12T09:28:33;34.97;;;25.83;;
55210;SDS011;41082;52.822;6.666;2022-09-12T09:31:17;35.75;;;26.33;;
55210;SDS011;41082;52.822;6.666;2022-09-12T09:33:53;39.80;;;27.38;;
55210;SDS011;41082;52.822;6.666;2022-09-12T09:44:44;38.50;;;27.30;;
55210;SDS011;41082;52.822;6.666;2022-09-12T09:47:12;41.63;;;29.25;;
55210;SDS011;41082;52.822;6.666;2022-09-12T09:49:39;38.17;;;27.38;;
55210;SDS011;41082;52.822;6.666;2022-09-12T09:52:06;40.08;;;27.67;;
55210;SDS011;41082;52.822;6.666;2022-09-12T09:54:40;39.03;;;27.48;;
55210;SDS011;41082;52.822;6.666;2022-09-12T10:05:27;34.42;;;26.25;;
55210;SDS011;41082;52.822;6.666;2022-09-12T10:07:53;34.50;;;25.15;;
55210;SDS011;41082;52.822;6.666;2022-09-12T10:10:19;36.78;;;26.25;;
55210;SDS011;41082;52.822;6.666;2022-09-12T10:12:49;33.25;;;24.63;;
55210;SDS011;41082;52.822;6.666;2022-09-12T10:15:16;33.20;;;24.50;;
55210;SDS011;41082;52.822;6.666;2022-09-12T10:17:48;33.35;;;23.92;;
55210;SDS011;41082;52.822;6.666;2022-09-12T10:25:56;29.50;;;24.17;;
55210;SDS011;41082;52.822;6.666;2022-09-12T10:28:32;30.83;;;23.00;;
55210;SDS011;41082;52.822;6.666;2022-09-12T10:31:03;31.88;;;23.05;;
55210;SDS011;41082;52.822;6.666;2022-09-12T10:33:30;30.23;;;22.60;;
55210;SDS011;41082;52.822;6.666;2022-09-12T10:36:04;28.48;;;21.70;;
55210;SDS011;41082;52.822;6.666;2022-09-12T10:38:31;28.70;;;22.70;;
55210;SDS011;41082;52.822;6.666;2022-09-12T10:41:04;28.00;;;22.00;;
55210;SDS011;41082;52.822;6.666;2022-09-12T10:46:19;25.77;;;18.45;;
55210;SDS011;41082;52.822;6.666;2022-09-12T10:49:29;25.40;;;19.48;;
55210;SDS011;41082;52.822;6.666;2022-09-12T10:52:23;20.48;;;17.52;;
55210;SDS011;41082;52.822;6.666;2022-09-12T10:54:50;25.17;;;18.85;;
55210;SDS011;41082;52.822;6.666;2022-09-12T11:00:18;24.27;;;19.38;;
55210;SDS011;41082;52.822;6.666;2022-09-12T11:14:38;24.33;;;18.92;;
55210;SDS011;41082;52.822;6.666;2022-09-12T11:17:19;28.88;;;20.65;;
55210;SDS011;41082;52.822;6.666;2022-09-12T11:33:43;18.25;;;15.27;;
55210;SDS011;41082;52.822;6.666;2022-09-12T11:36:15;18.35;;;13.40;;
55210;SDS011;41082;52.822;6.666;2022-09-12T11:38:46;17.20;;;13.55;;
55210;SDS011;41082;52.822;6.666;2022-09-12T11:43:42;20.45;;;16.10;;
55210;SDS011;41082;52.822;6.666;2022-09-12T11:46:27;20.85;;;14.57;;
55210;SDS011;41082;52.822;6.666;2022-09-12T11:49:05;20.98;;;15.95;;
55210;SDS011;41082;52.822;6.666;2022-09-12T11:54:35;20.48;;;16.58;;
55210;SDS011;41082;52.822;6.666;2022-09-12T11:57:16;19.25;;;13.82;;
55210;SDS011;41082;52.822;6.666;2022-09-12T11:59:51;18.27;;;14.05;;
55210;SDS011;41082;52.822;6.666;2022-09-12T12:02:27;21.65;;;16.48;;
55210;SDS011;41082;52.822;6.666;2022-09-12T12:07:51;19.92;;;15.88;;
55210;SDS011;41082;52.822;6.666;2022-09-12T12:10:23;20.55;;;14.82;;
55210;SDS011;41082;52.822;6.666;2022-09-12T12:12:50;20.30;;;15.98;;
55210;SDS011;41082;52.822;6.666;2022-09-12T12:15:18;18.65;;;14.57;;
55210;SDS011;41082;52.822;6.666;2022-09-12T12:17:57;21.98;;;16.50;;
55210;SDS011;41082;52.822;6.666;2022-09-12T12:20:32;19.80;;;15.23;;
55210;SDS011;41082;52.822;6.666;2022-09-12T12:22:58;16.50;;;13.18;;
55210;SDS011;41082;52.822;6.666;2022-09-12T12:25:25;20.38;;;12.68;;
55210;SDS011;41082;52.822;6.666;2022-09-12T12:28:04;20.50;;;13.87;;
55210;SDS011;41082;52.822;6.666;2022-09-12T12:33:01;17.13;;;12.75;;
55210;SDS011;41082;52.822;6.666;2022-09-12T12:41:15;19.45;;;14.43;;
55210;SDS011;41082;52.822;6.666;2022-09-12T12:43:45;16.02;;;12.77;;
55210;SDS011;41082;52.822;6.666;2022-09-12T12:46:13;16.88;;;12.68;;
55210;SDS011;41082;52.822;6.666;2022-09-12T12:53:58;14.27;;;10.23;;
55210;SDS011;41082;52.822;6.666;2022-09-12T12:56:34;15.75;;;11.40;;
55210;SDS011;41082;52.822;6.666;2022-09-12T12:59:12;14.95;;;12.13;;
55210;SDS011;41082;52.822;6.666;2022-09-12T13:01:49;10.80;;;8.40;;
55210;SDS011;41082;52.822;6.666;2022-09-12T13:04:19;8.55;;;6.07;;
55210;SDS011;41082;52.822;6.666;2022-09-12T13:09:43;8.95;;;5.55;;
55210;SDS011;41082;52.822;6.666;2022-09-12T13:12:16;8.07;;;5.50;;
55210;SDS011;41082;52.822;6.666;2022-09-12T13:14:49;6.13;;;5.03;;
55210;SDS011;41082;52.822;6.666;2022-09-12T13:17:24;5.57;;;4.97;;
55210;SDS011;41082;52.822;6.666;2022-09-12T13:22:38;4.30;;;3.72;;
55210;SDS011;41082;52.822;6.666;2022-09-12T13:28:03;4.75;;;4.10;;
55210;SDS011;41082;52.822;6.666;2022-09-12T13:30:36;4.90;;;4.40;;
55210;SDS011;41082;52.822;6.666;2022-09-12T13:43:40;6.00;;;4.78;;
55210;SDS011;41082;52.822;6.666;2022-09-12T13:46:08;5.90;;;5.00;;
55210;SDS011;41082;52.822;6.666;2022-09-12T13:48:37;7.35;;;6.05;;
55210;SDS011;41082;52.822;6.666;2022-09-12T13:51:04;6.72;;;5.63;;
55210;SDS011;41082;52.822;6.666;2022-09-12T13:53:42;6.63;;;6.00;;
55210;SDS011;41082;52.822;6.666;2022-09-12T13:58:49;5.97;;;5.03;;
55210;SDS011;41082;52.822;6.666;2022-09-12T14:04:21;9.45;;;6.15;;
55210;SDS011;41082;52.822;6.666;2022-09-12T14:09:38;5.05;;;4.53;;
55210;SDS011;41082;52.822;6.666;2022-09-12T14:12:13;7.15;;;3.83;;
55210;SDS011;41082;52.822;6.666;2022-09-12T14:14:46;6.75;;;3.55;;
55210;SDS011;41082;52.822;6.666;2022-09-12T14:17:15;4.30;;;3.53;;
55210;SDS011;41082;52.822;6.666;2022-09-12T14:19:42;5.43;;;3.63;;
55210;SDS011;41082;52.822;6.666;2022-09-12T14:22:11;4.18;;;3.75;;
55210;SDS011;41082;52.822;6.666;2022-09-12T14:24:41;6.35;;;3.78;;
55210;SDS011;41082;52.822;6.666;2022-09-12T14:27:22;5.63;;;3.25;;
55210;SDS011;41082;52.822;6.666;2022-09-12T14:29:54;4.93;;;3.15;;
55210;SDS011;41082;52.822;6.666;2022-09-12T14:32:33;3.92;;;3.35;;
55210;SDS011;41082;52.822;6.666;2022-09-12T14:35:18;3.40;;;2.95;;
55210;SDS011;41082;52.822;6.666;2022-09-12T14:37:46;3.63;;;2.47;;
55210;SDS011;41082;52.822;6.666;2022-09-12T14:40:18;4.00;;;2.90;;
55210;SDS011;41082;52.822;6.666;2022-09-12T14:42:46;3.30;;;2.47;;
55210;SDS011;41082;52.822;6.666;2022-09-12T14:45:30;4.57;;;3.00;;
55210;SDS011;41082;52.822;6.666;2022-09-12T14:47:56;5.30;;;2.53;;
55210;SDS011;41082;52.822;6.666;2022-09-12T14:50:23;4.53;;;2.40;;
55210;SDS011;41082;52.822;6.666;2022-09-12T14:53:19;3.95;;;2.72;;
55210;SDS011;41082;52.822;6.666;2022-09-12T14:55:58;5.05;;;2.80;;
55210;SDS011;41082;52.822;6.666;2022-09-12T14:58:32;3.58;;;2.15;;
55210;SDS011;41082;52.822;6.666;2022-09-12T15:03:36;8.15;;;2.22;;
55210;SDS011;41082;52.822;6.666;2022-09-12T15:06:05;2.42;;;1.90;;
55210;SDS011;41082;52.822;6.666;2022-09-12T15:08:44;4.60;;;2.22;;
55210;SDS011;41082;52.822;6.666;2022-09-12T15:11:09;4.05;;;2.15;;
55210;SDS011;41082;52.822;6.666;2022-09-12T15:13:39;2.63;;;2.00;;
55210;SDS011;41082;52.822;6.666;2022-09-12T15:16:09;2.88;;;2.45;;
55210;SDS011;41082;52.822;6.666;2022-09-12T15:18:35;2.88;;;2.33;;
55210;SDS011;41082;52.822;6.666;2022-09-12T15:21:02;3.00;;;2.03;;
55210;SDS011;41082;52.822;6.666;2022-09-12T15:23:38;4.13;;;2.78;;
55210;SDS011;41082;52.822;6.666;2022-09-12T15:26:14;2.70;;;2.17;;
55210;SDS011;41082;52.822;6.666;2022-09-12T15:28:45;4.90;;;1.90;;
55210;SDS011;41082;52.822;6.666;2022-09-12T15:33:50;5.15;;;2.00;;
55210;SDS011;41082;52.822;6.666;2022-09-12T15:36:17;3.58;;;2.53;;
55210;SDS011;41082;52.822;6.666;2022-09-12T15:38:45;4.28;;;2.15;;
55210;SDS011;41082;52.822;6.666;2022-09-12T15:41:15;3.40;;;2.42;;
55210;SDS011;41082;52.822;6.666;2022-09-12T15:43:45;4.78;;;2.20;;
55210;SDS011;41082;52.822;6.666;2022-09-12T15:46:12;4.63;;;2.10;;
55210;SDS011;41082;52.822;6.666;2022-09-12T15:48:38;3.35;;;2.42;;
55210;SDS011;41082;52.822;6.666;2022-09-12T15:51:05;3.10;;;2.53;;
55210;SDS011;41082;52.822;6.666;2022-09-12T15:53:38;3.50;;;2.67;;
55210;SDS011;41082;52.822;6.666;2022-09-12T15:56:04;4.82;;;3.00;;
55210;SDS011;41082;52.822;6.666;2022-09-12T15:58:29;5.80;;;3.33;;
55210;SDS011;41082;52.822;6.666;2022-09-12T16:00:55;4.25;;;2.85;;
55210;SDS011;41082;52.822;6.666;2022-09-12T16:03:22;2.67;;;2.47;;
55210;SDS011;41082;52.822;6.666;2022-09-12T16:05:52;3.60;;;2.78;;
55210;SDS011;41082;52.822;6.666;2022-09-12T16:08:21;2.85;;;2.65;;
55210;SDS011;41082;52.822;6.666;2022-09-12T16:10:48;3.47;;;2.50;;
55210;SDS011;41082;52.822;6.666;2022-09-12T16:13:16;4.30;;;2.50;;
55210;SDS011;41082;52.822;6.666;2022-09-12T16:15:42;4.25;;;2.53;;
55210;SDS011;41082;52.822;6.666;2022-09-12T16:18:07;2.83;;;2.63;;
55210;SDS011;41082;52.822;6.666;2022-09-12T16:20:33;4.72;;;2.85;;
55210;SDS011;41082;52.822;6.666;2022-09-12T16:22:59;3.78;;;2.60;;
55210;SDS011;41082;52.822;6.666;2022-09-12T16:25:25;4.70;;;2.95;;
55210;SDS011;41082;52.822;6.666;2022-09-12T16:27:50;3.05;;;2.60;;
55210;SDS011;41082;52.822;6.666;2022-09-12T16:30:16;3.38;;;3.05;;
55210;SDS011;41082;52.822;6.666;2022-09-12T16:32:42;3.65;;;2.70;;
55210;SDS011;41082;52.822;6.666;2022-09-12T16:35:07;4.47;;;2.70;;
55210;SDS011;41082;52.822;6.666;2022-09-12T16:37:33;5.88;;;2.92;;
55210;SDS011;41082;52.822;6.666;2022-09-12T16:39:59;3.45;;;2.60;;
55210;SDS011;41082;52.822;6.666;2022-09-12T16:42:26;3.65;;;2.80;;
55210;SDS011;41082;52.822;6.666;2022-09-12T16:44:51;2.85;;;2.53;;
55210;SDS011;41082;52.822;6.666;2022-09-12T16:47:17;5.53;;;2.67;;
55210;SDS011;41082;52.822;6.666;2022-09-12T16:49:42;4.80;;;2.42;;
55210;SDS011;41082;52.822;6.666;2022-09-12T16:52:08;3.10;;;2.30;;
55210;SDS011;41082;52.822;6.666;2022-09-12T16:54:34;5.97;;;2.45;;
55210;SDS011;41082;52.822;6.666;2022-09-12T16:57:00;4.25;;;2.38;;
55210;SDS011;41082;52.822;6.666;2022-09-12T16:59:29;3.65;;;2.40;;
55210;SDS011;41082;52.822;6.666;2022-09-12T17:01:55;5.68;;;2.03;;
55210;SDS011;41082;52.822;6.666;2022-09-12T17:04:20;2.95;;;2.03;;
55210;SDS011;41082;52.822;6.666;2022-09-12T17:06:46;4.18;;;2.30;;
55210;SDS011;41082;52.822;6.666;2022-09-12T17:09:12;3.05;;;1.90;;
55210;SDS011;41082;52.822;6.666;2022-09-12T17:11:42;4.40;;;2.60;;
55210;SDS011;41082;52.822;6.666;2022-09-12T17:14:09;2.90;;;2.40;;
55210;SDS011;41082;52.822;6.666;2022-09-12T17:16:36;2.97;;;2.17;;
55210;SDS011;41082;52.822;6.666;2022-09-12T17:19:04;2.47;;;2.20;;
55210;SDS011;41082;52.822;6.666;2022-09-12T17:21:30;2.60;;;2.30;;
55210;SDS011;41082;52.822;6.666;2022-09-12T17:23:56;2.50;;;2.00;;
55210;SDS011;41082;52.822;6.666;2022-09-12T17:26:23;5.35;;;2.00;;
55210;SDS011;41082;52.822;6.666;2022-09-12T17:28:49;6.72;;;2.13;;
55210;SDS011;41082;52.822;6.666;2022-09-12T17:31:15;4.15;;;2.15;;
55210;SDS011;41082;52.822;6.666;2022-09-12T17:33:41;3.78;;;2.50;;
55210;SDS011;41082;52.822;6.666;2022-09-12T17:36:08;4.70;;;2.22;;
55210;SDS011;41082;52.822;6.666;2022-09-12T17:38:35;2.42;;;1.80;;
55210;SDS011;41082;52.822;6.666;2022-09-12T17:41:36;3.28;;;2.13;;